createdAt,value
2018-09-11T00:00:18.887Z,3.13
2018-09-11T00:02:47.074Z,3.03
2018-09-11T00:05:15.086Z,2.43
2018-09-11T00:07:43.067Z,3.47
2018-09-11T00:10:12.767Z,2.70
2018-09-11T00:12:40.806Z,3.03
2018-09-11T00:15:08.859Z,3.13
2018-09-11T00:17:36.916Z,3.23
2018-09-11T00:20:04.989Z,3.00
2018-09-11T00:22:33.082Z,3.37
2018-09-11T00:25:01.298Z,2.93
2018-09-11T00:27:29.326Z,2.73
2018-09-11T00:29:57.522Z,2.67
2018-09-11T00:32:25.583Z,2.77
2018-09-11T00:34:53.614Z,2.97
2018-09-11T00:37:21.630Z,2.77
2018-09-11T00:39:51.867Z,2.90
2018-09-11T00:42:22.148Z,2.10
2018-09-11T00:44:50.230Z,3.07
2018-09-11T00:47:18.218Z,2.97
2018-09-11T00:49:46.519Z,3.00
2018-09-11T00:52:14.545Z,3.37
2018-09-11T00:54:42.552Z,2.27
2018-09-11T00:57:10.547Z,2.90
2018-09-11T00:59:40.950Z,2.27
2018-09-11T01:02:09.014Z,2.17
2018-09-11T01:04:37.051Z,2.43
2018-09-11T01:07:05.031Z,2.80
2018-09-11T01:09:33.043Z,3.53
2018-09-11T01:12:01.098Z,2.87
2018-09-11T01:14:29.078Z,2.60
2018-09-11T01:16:57.114Z,3.00
2018-09-11T01:19:25.133Z,2.60
2018-09-11T01:21:53.095Z,2.87
2018-09-11T01:24:21.150Z,3.00
2018-09-11T01:26:49.118Z,3.13
2018-09-11T01:29:19.409Z,2.83
2018-09-11T01:31:47.466Z,3.07
2018-09-11T01:34:15.438Z,2.63
2018-09-11T01:36:43.426Z,2.87
2018-09-11T01:39:12.799Z,2.93
2018-09-11T01:41:40.864Z,2.50
2018-09-11T01:44:09.172Z,2.43
2018-09-11T01:46:37.159Z,2.47
2018-09-11T01:49:07.430Z,2.80
2018-09-11T01:51:35.446Z,2.70
2018-09-11T01:54:03.472Z,2.40
2018-09-11T01:56:31.554Z,2.90
2018-09-11T01:58:59.717Z,3.20
2018-09-11T02:01:27.888Z,2.83
2018-09-11T02:03:55.981Z,2.43
2018-09-11T02:06:24.020Z,2.77
2018-09-11T02:08:52.135Z,2.60
2018-09-11T02:11:24.670Z,2.83
2018-09-11T02:13:52.783Z,2.97
2018-09-11T02:16:20.894Z,2.70
2018-09-11T02:18:48.960Z,2.67
2018-09-11T02:21:19.097Z,2.77
2018-09-11T02:23:47.137Z,3.10
2018-09-11T02:26:15.244Z,3.03
2018-09-11T02:28:43.255Z,2.70
2018-09-11T02:31:17.624Z,2.93
2018-09-11T02:33:45.696Z,2.47
2018-09-11T02:36:14.773Z,2.90
2018-09-11T02:38:42.811Z,2.50
2018-09-11T02:41:14.904Z,3.03
2018-09-11T02:43:42.953Z,3.00
2018-09-11T02:46:10.968Z,2.37
2018-09-11T02:48:41.244Z,2.53
2018-09-11T02:51:11.508Z,3.07
2018-09-11T02:53:39.538Z,2.43
2018-09-11T02:56:09.838Z,2.73
2018-09-11T02:58:42.323Z,2.13
2018-09-11T03:01:10.369Z,3.23
2018-09-11T03:03:38.460Z,2.50
2018-09-11T03:06:06.541Z,2.93
2018-09-11T03:08:34.608Z,3.20
2018-09-11T03:11:02.664Z,3.33
2018-09-11T03:13:30.707Z,3.30
2018-09-11T03:15:58.812Z,3.20
2018-09-11T03:18:26.882Z,3.37
2018-09-11T03:20:54.935Z,2.93
2018-09-11T03:23:23.038Z,3.00
2018-09-11T03:26:03.167Z,3.30
2018-09-11T03:28:31.281Z,3.00
2018-09-11T03:30:59.439Z,3.20
2018-09-11T03:33:27.546Z,2.63
2018-09-11T03:35:55.644Z,3.80
2018-09-11T03:38:23.747Z,3.27
2018-09-11T03:40:51.883Z,3.57
2018-09-11T03:43:19.992Z,3.63
2018-09-11T03:45:48.613Z,3.03
2018-09-11T03:48:18.037Z,3.13
2018-09-11T03:50:47.250Z,3.17
2018-09-11T03:53:15.466Z,3.00
2018-09-11T03:55:43.883Z,3.70
2018-09-11T03:58:12.691Z,3.53
2018-09-11T04:00:41.116Z,3.60
2018-09-11T04:03:09.383Z,2.90
2018-09-11T04:05:37.587Z,3.70
2018-09-11T04:08:05.765Z,3.63
2018-09-11T04:10:33.953Z,3.70
2018-09-11T04:13:02.479Z,3.77
2018-09-11T04:15:30.763Z,3.60
2018-09-11T04:17:59.459Z,4.00
2018-09-11T04:20:27.691Z,3.63
2018-09-11T04:22:55.899Z,3.60
2018-09-11T04:25:24.106Z,3.57
2018-09-11T04:27:52.347Z,4.17
2018-09-11T04:30:20.916Z,4.07
2018-09-11T04:32:49.185Z,3.40
2018-09-11T04:35:17.723Z,3.60
2018-09-11T04:37:45.933Z,4.27
2018-09-11T04:40:14.607Z,3.97
2018-09-11T04:42:42.849Z,4.00
2018-09-11T04:45:11.591Z,3.80
2018-09-11T04:47:40.166Z,3.67
2018-09-11T04:50:08.386Z,3.73
2018-09-11T04:52:36.588Z,4.20
2018-09-11T04:55:04.805Z,3.67
2018-09-11T04:57:33.408Z,3.83
2018-09-11T05:00:01.713Z,4.87
2018-09-11T05:02:29.855Z,4.37
2018-09-11T05:04:58.480Z,3.17
2018-09-11T05:07:26.751Z,3.57
2018-09-11T05:09:54.920Z,4.00
2018-09-11T05:12:23.556Z,4.20
2018-09-11T05:14:51.909Z,3.23
2018-09-11T05:17:20.492Z,4.30
2018-09-11T05:19:49.014Z,4.33
2018-09-11T05:22:17.839Z,5.03
2018-09-11T05:24:46.164Z,3.47
2018-09-11T05:27:14.455Z,4.43
2018-09-11T05:29:43.092Z,4.67
2018-09-11T05:32:11.312Z,3.70
2018-09-11T05:34:39.761Z,3.97
2018-09-11T05:37:08.036Z,3.50
2018-09-11T05:39:36.210Z,3.83
2018-09-11T05:42:04.800Z,3.70
2018-09-11T05:44:33.066Z,4.00
2018-09-11T05:47:01.411Z,3.30
2018-09-11T05:49:29.537Z,3.97
2018-09-11T05:51:57.603Z,3.83
2018-09-11T05:54:25.636Z,3.10
2018-09-11T05:56:53.705Z,3.80
2018-09-11T05:59:21.760Z,3.43
2018-09-11T06:01:49.800Z,3.87
2018-09-11T06:04:17.860Z,3.53
2018-09-11T06:06:45.887Z,3.23
2018-09-11T06:09:14.220Z,3.00
2018-09-11T06:11:42.641Z,4.07
2018-09-11T06:14:11.187Z,3.50
2018-09-11T06:16:39.373Z,3.17
2018-09-11T06:19:07.745Z,3.87
2018-09-11T06:21:36.063Z,3.00
2018-09-11T06:24:04.440Z,3.00
2018-09-11T06:26:32.555Z,3.60
2018-09-11T06:29:00.886Z,3.23
2018-09-11T06:31:29.136Z,2.73
2018-09-11T06:33:57.628Z,3.50
2018-09-11T06:36:25.810Z,3.10
2018-09-11T06:38:54.071Z,2.90
2018-09-11T06:41:22.544Z,2.80
2018-09-11T06:43:51.497Z,3.53
2018-09-11T06:46:19.732Z,2.87
2018-09-11T06:48:47.769Z,2.50
2018-09-11T06:51:15.796Z,3.20
2018-09-11T06:53:43.888Z,2.80
2018-09-11T06:56:11.940Z,2.70
2018-09-11T06:58:40.017Z,3.10
2018-09-11T07:01:08.079Z,2.80
2018-09-11T07:03:36.174Z,3.80
2018-09-11T07:06:04.247Z,3.63
2018-09-11T07:08:32.353Z,3.50
2018-09-11T07:11:00.416Z,2.87
2018-09-11T07:13:28.510Z,3.50
2018-09-11T07:16:02.121Z,3.53
2018-09-11T07:18:30.205Z,3.33
2018-09-11T07:20:58.303Z,3.43
2018-09-11T07:23:26.352Z,2.97
2018-09-11T07:25:54.454Z,2.63
2018-09-11T07:28:22.512Z,3.13
2018-09-11T07:30:50.732Z,2.97
2018-09-11T07:33:18.888Z,3.10
2018-09-11T07:35:47.008Z,2.70
2018-09-11T07:38:15.963Z,3.20
2018-09-11T07:40:44.078Z,3.70
2018-09-11T07:43:12.158Z,3.33
2018-09-11T07:45:40.248Z,2.50
2018-09-11T07:48:08.390Z,3.27
2018-09-11T07:50:36.455Z,3.30
2018-09-11T07:53:04.503Z,3.60
2018-09-11T07:55:32.561Z,2.80
2018-09-11T07:58:00.678Z,2.60
2018-09-11T08:00:28.859Z,2.97
2018-09-11T08:02:56.939Z,3.03
2018-09-11T08:05:25.018Z,3.90
2018-09-11T08:07:53.096Z,2.90
2018-09-11T08:10:21.383Z,3.20
2018-09-11T08:12:49.450Z,3.03
2018-09-11T08:15:17.531Z,3.63
2018-09-11T08:17:45.725Z,3.20
2018-09-11T08:20:13.814Z,2.90
2018-09-11T08:22:41.870Z,2.90
2018-09-11T08:25:09.940Z,3.37
2018-09-11T08:27:38.092Z,3.13
2018-09-11T08:30:06.235Z,2.90
2018-09-11T08:32:34.301Z,3.37
2018-09-11T08:35:02.513Z,3.17
2018-09-11T08:37:30.593Z,3.33
2018-09-11T08:39:58.863Z,2.87
2018-09-11T08:42:26.953Z,2.83
2018-09-11T08:44:56.055Z,3.07
2018-09-11T08:47:24.437Z,3.20
2018-09-11T08:49:53.356Z,3.23
2018-09-11T08:52:21.662Z,2.50
2018-09-11T08:54:50.100Z,3.20
2018-09-11T08:57:18.346Z,2.87
2018-09-11T08:59:46.456Z,3.37
2018-09-11T09:02:14.596Z,2.77
2018-09-11T09:04:42.676Z,3.03
2018-09-11T09:07:10.716Z,3.30
2018-09-11T09:09:38.773Z,3.23
2018-09-11T09:12:06.818Z,2.80
2018-09-11T09:14:34.989Z,3.30
2018-09-11T09:17:03.028Z,2.90
2018-09-11T09:19:31.081Z,3.07
2018-09-11T09:21:59.129Z,2.80
2018-09-11T09:24:27.222Z,2.50
2018-09-11T09:26:55.395Z,2.40
2018-09-11T09:29:23.486Z,2.70
2018-09-11T09:31:51.750Z,2.73
2018-09-11T09:34:19.813Z,3.23
2018-09-11T09:36:47.981Z,2.67
2018-09-11T09:39:15.995Z,2.97
2018-09-11T09:41:44.054Z,3.00
2018-09-11T09:44:12.104Z,2.77
2018-09-11T09:46:40.243Z,2.70
2018-09-11T09:49:08.316Z,2.70
2018-09-11T09:51:36.366Z,2.40
2018-09-11T09:54:04.428Z,2.63
2018-09-11T09:56:33.552Z,2.60
2018-09-11T09:59:01.633Z,3.07
2018-09-11T10:01:35.025Z,2.63
2018-09-11T10:04:03.090Z,2.20
2018-09-11T10:06:31.133Z,2.47
2018-09-11T10:08:59.183Z,2.30
2018-09-11T10:11:27.225Z,2.67
2018-09-11T10:13:55.282Z,2.70
2018-09-11T10:16:23.325Z,2.10
2018-09-11T10:18:51.381Z,2.70
2018-09-11T10:21:19.536Z,2.80
2018-09-11T10:23:47.707Z,2.20
2018-09-11T10:26:15.744Z,2.63
2018-09-11T10:28:43.873Z,2.33
2018-09-11T10:31:12.888Z,2.27
2018-09-11T10:33:40.935Z,2.60
2018-09-11T10:36:09.070Z,2.33
2018-09-11T10:38:37.124Z,2.50
2018-09-11T10:41:05.320Z,2.37
2018-09-11T10:43:33.376Z,2.40
2018-09-11T10:46:01.804Z,2.83
2018-09-11T10:48:29.862Z,2.73
2018-09-11T10:50:57.912Z,2.20
2018-09-11T10:53:25.949Z,2.60
2018-09-11T10:55:54.000Z,2.60
2018-09-11T10:58:22.088Z,2.33
2018-09-11T11:00:50.161Z,2.10
2018-09-11T11:03:18.224Z,2.47
2018-09-11T11:05:46.553Z,2.80
2018-09-11T11:08:14.644Z,2.40
2018-09-11T11:10:42.735Z,2.20
2018-09-11T11:13:10.801Z,2.33
2018-09-11T11:15:38.872Z,2.47
2018-09-11T11:18:06.972Z,2.40
2018-09-11T11:20:35.033Z,2.27
2018-09-11T11:23:03.083Z,2.33
2018-09-11T11:25:31.152Z,1.83
2018-09-11T11:27:59.196Z,2.00
2018-09-11T11:30:27.265Z,1.80
2018-09-11T11:32:55.338Z,2.17
2018-09-11T11:35:23.569Z,2.30
2018-09-11T11:37:51.886Z,2.57
2018-09-11T11:40:20.121Z,2.47
2018-09-11T11:42:48.540Z,2.20
2018-09-11T11:45:16.551Z,2.50
2018-09-11T11:47:44.924Z,2.57
2018-09-11T11:50:12.955Z,2.30
2018-09-11T11:52:41.189Z,2.27
2018-09-11T11:55:09.341Z,2.40
2018-09-11T11:57:37.404Z,2.70
2018-09-11T12:00:05.493Z,2.37
2018-09-11T12:02:33.533Z,2.53
2018-09-11T12:05:01.645Z,2.23
2018-09-11T12:07:29.672Z,2.20
2018-09-11T12:09:57.828Z,2.40
2018-09-11T12:12:25.891Z,2.63
2018-09-11T12:14:53.965Z,2.33
2018-09-11T12:17:22.016Z,2.50
2018-09-11T12:19:50.047Z,2.00
2018-09-11T12:22:18.080Z,2.70
2018-09-11T12:24:46.101Z,2.90
2018-09-11T12:27:14.132Z,2.90
2018-09-11T12:29:42.176Z,2.67
2018-09-11T12:32:10.227Z,2.50
2018-09-11T12:34:38.280Z,3.30
2018-09-11T12:37:06.312Z,2.73
2018-09-11T12:39:34.337Z,2.60
2018-09-11T12:42:02.360Z,2.30
2018-09-11T12:44:30.392Z,2.67
2018-09-11T12:46:58.679Z,2.63
2018-09-11T12:49:26.507Z,3.27
2018-09-11T12:51:54.524Z,3.60
2018-09-11T12:54:22.557Z,2.30
2018-09-11T12:56:50.742Z,2.83
2018-09-11T12:59:19.485Z,3.30
2018-09-11T13:01:47.533Z,2.80
2018-09-11T13:04:15.567Z,2.83
2018-09-11T13:06:43.617Z,2.73
2018-09-11T13:09:11.753Z,2.80
2018-09-11T13:11:39.736Z,2.43
2018-09-11T13:14:07.836Z,2.67
2018-09-11T13:16:35.905Z,2.40
2018-09-11T13:19:03.963Z,2.33
2018-09-11T13:21:31.999Z,2.50
2018-09-11T13:24:00.131Z,2.93
2018-09-11T13:26:28.364Z,2.90
2018-09-11T13:28:56.601Z,2.73
2018-09-11T13:31:24.680Z,3.10
2018-09-11T13:33:52.798Z,3.87
2018-09-11T13:36:21.132Z,2.13
2018-09-11T13:38:49.182Z,2.70
2018-09-11T13:41:17.308Z,2.70
2018-09-11T13:43:45.855Z,2.60
2018-09-11T13:46:13.901Z,2.33
2018-09-11T13:48:41.968Z,2.23
2018-09-11T13:51:09.976Z,2.23
2018-09-11T13:53:38.037Z,3.07
2018-09-11T13:56:06.311Z,2.13
2018-09-11T13:58:34.339Z,2.70
2018-09-11T14:01:02.377Z,2.40
2018-09-11T14:03:30.540Z,2.13
2018-09-11T14:05:58.543Z,2.57
2018-09-11T14:08:26.656Z,2.80
2018-09-11T14:10:54.687Z,2.90
2018-09-11T14:13:22.784Z,2.03
2018-09-11T14:15:50.892Z,2.33
2018-09-11T14:18:19.003Z,2.87
2018-09-11T14:20:47.034Z,2.43
2018-09-11T14:23:15.152Z,3.30
2018-09-11T14:25:43.182Z,2.90
2018-09-11T14:28:11.219Z,2.23
2018-09-11T14:30:39.320Z,2.40
2018-09-11T14:33:07.463Z,2.53
2018-09-11T14:35:36.126Z,3.00
2018-09-11T14:38:04.449Z,2.40
2018-09-11T14:40:32.669Z,3.20
2018-09-11T14:43:00.863Z,3.00
2018-09-11T14:45:29.356Z,2.47
2018-09-11T14:47:57.955Z,2.60
2018-09-11T14:50:26.300Z,2.93
2018-09-11T14:52:54.366Z,2.87
2018-09-11T14:55:22.432Z,2.93
2018-09-11T14:57:50.648Z,2.50
2018-09-11T15:00:18.919Z,2.63
2018-09-11T15:02:46.977Z,2.70
2018-09-11T15:05:15.250Z,2.90
2018-09-11T15:07:43.612Z,3.07
2018-09-11T15:10:13.861Z,2.33
2018-09-11T15:12:42.520Z,2.90
2018-09-11T15:15:10.787Z,3.20
2018-09-11T15:17:39.545Z,2.70
2018-09-11T15:20:08.802Z,3.03
2018-09-11T15:22:37.563Z,2.90
2018-09-11T15:25:05.981Z,3.07
2018-09-11T15:27:34.521Z,3.10
2018-09-11T15:30:03.997Z,3.00
2018-09-11T15:32:32.512Z,2.70
2018-09-11T15:35:01.122Z,2.93
2018-09-11T15:37:29.239Z,2.80
2018-09-11T15:39:57.374Z,3.10
2018-09-11T15:42:25.496Z,2.53
2018-09-11T15:44:53.676Z,3.60
2018-09-11T15:47:21.770Z,2.83
2018-09-11T15:49:49.949Z,3.33
2018-09-11T15:52:18.040Z,3.07
2018-09-11T15:54:46.189Z,2.70
2018-09-11T15:57:14.451Z,3.20
2018-09-11T15:59:42.592Z,2.70
2018-09-11T16:02:10.735Z,3.10
2018-09-11T16:04:38.816Z,2.50
2018-09-11T16:07:06.948Z,2.70
2018-09-11T16:09:35.156Z,2.90
2018-09-11T16:12:03.351Z,3.23
2018-09-11T16:14:31.842Z,2.50
2018-09-11T16:17:00.070Z,3.10
2018-09-11T16:19:30.059Z,2.30
2018-09-11T16:21:58.726Z,2.90
2018-09-11T16:24:28.639Z,2.50
2018-09-11T16:26:56.900Z,2.70
2018-09-11T16:29:25.093Z,2.70
2018-09-11T16:31:53.176Z,2.90
2018-09-11T16:34:21.384Z,3.40
2018-09-11T16:36:49.696Z,2.83
2018-09-11T16:39:17.974Z,3.07
2018-09-11T16:41:46.092Z,3.00
2018-09-11T16:44:14.242Z,2.83
2018-09-11T16:46:42.449Z,5.87
2018-09-11T16:49:10.710Z,2.47
2018-09-11T16:51:38.914Z,2.90
2018-09-11T16:54:07.576Z,2.80
2018-09-11T16:56:36.127Z,2.80
2018-09-11T16:59:04.500Z,2.80
2018-09-11T17:01:32.821Z,3.13
2018-09-11T17:04:01.169Z,2.90
2018-09-11T17:06:29.503Z,3.53
2018-09-11T17:08:57.627Z,3.20
2018-09-11T17:11:25.745Z,3.33
2018-09-11T17:13:57.264Z,3.60
2018-09-11T17:16:25.624Z,3.40
2018-09-11T17:18:53.722Z,2.77
2018-09-11T17:21:21.773Z,3.63
2018-09-11T17:23:49.816Z,4.47
2018-09-11T17:26:18.018Z,3.97
2018-09-11T17:28:46.060Z,4.03
2018-09-11T17:31:14.180Z,4.90
2018-09-11T17:33:42.212Z,4.30
2018-09-11T17:36:10.279Z,5.40
2018-09-11T17:38:38.622Z,5.13
2018-09-11T17:41:06.792Z,6.00
2018-09-11T17:43:34.763Z,5.97
2018-09-11T17:46:02.938Z,4.80
2018-09-11T17:48:31.200Z,4.87
2018-09-11T17:50:59.486Z,4.60
2018-09-11T17:53:27.652Z,5.33
2018-09-11T17:55:55.802Z,5.40
2018-09-11T17:58:24.009Z,5.27
2018-09-11T18:00:52.500Z,5.30
2018-09-11T18:03:20.643Z,5.37
2018-09-11T18:05:48.823Z,5.60
2018-09-11T18:08:17.188Z,6.33
2018-09-11T18:10:47.286Z,6.77
2018-09-11T18:13:16.571Z,6.80
2018-09-11T18:15:47.023Z,6.63
2018-09-11T18:18:15.136Z,6.10
2018-09-11T18:20:43.365Z,5.90
2018-09-11T18:23:11.534Z,6.10
2018-09-11T18:25:39.993Z,5.63
2018-09-11T18:28:08.394Z,5.50
2018-09-11T18:30:36.484Z,6.03
2018-09-11T18:33:04.581Z,5.70
2018-09-11T18:35:32.830Z,6.27
2018-09-11T18:38:00.945Z,5.60
2018-09-11T18:40:29.178Z,5.80
2018-09-11T18:42:57.445Z,4.90
2018-09-11T18:45:25.578Z,5.80
2018-09-11T18:47:53.797Z,6.87
2018-09-11T18:50:21.973Z,6.00
2018-09-11T18:52:50.146Z,5.67
2018-09-11T18:55:18.472Z,6.00
2018-09-11T18:57:46.943Z,4.73
2018-09-11T19:00:15.298Z,5.73
2018-09-11T19:02:43.633Z,6.90
2018-09-11T19:05:11.829Z,5.20
2018-09-11T19:07:39.865Z,5.50
2018-09-11T19:10:07.877Z,4.93
2018-09-11T19:12:35.999Z,5.60
2018-09-11T19:15:04.143Z,5.57
2018-09-11T19:17:32.581Z,5.90
2018-09-11T19:20:00.658Z,4.30
2018-09-11T19:22:29.484Z,4.80
2018-09-11T19:24:57.737Z,5.63
2018-09-11T19:27:26.040Z,4.70
2018-09-11T19:29:54.096Z,5.07
2018-09-11T19:32:22.385Z,5.13
2018-09-11T19:34:50.454Z,5.10
2018-09-11T19:37:18.475Z,5.33
2018-09-11T19:39:46.882Z,5.20
2018-09-11T19:42:15.130Z,4.53
2018-09-11T19:44:43.228Z,4.70
2018-09-11T19:47:11.362Z,5.20
2018-09-11T19:49:39.520Z,5.10
2018-09-11T19:52:08.035Z,5.23
2018-09-11T19:54:36.277Z,5.20
2018-09-11T19:57:04.350Z,5.27
2018-09-11T19:59:32.539Z,5.00
2018-09-11T20:02:00.554Z,5.47
2018-09-11T20:04:28.575Z,5.37
2018-09-11T20:06:56.611Z,4.97
2018-09-11T20:09:24.659Z,5.10
2018-09-11T20:11:52.699Z,5.47
2018-09-11T20:14:20.706Z,4.80
2018-09-11T20:16:48.978Z,5.27
2018-09-11T20:19:16.995Z,6.13
2018-09-11T20:21:45.033Z,5.17
2018-09-11T20:24:13.245Z,5.10
2018-09-11T20:26:41.287Z,4.60
2018-09-11T20:29:09.328Z,5.80
2018-09-11T20:31:37.382Z,4.87
2018-09-11T20:34:05.478Z,5.10
2018-09-11T20:36:33.560Z,4.97
2018-09-11T20:39:01.674Z,4.90
2018-09-11T20:41:29.679Z,5.17
2018-09-11T20:43:57.670Z,4.73
2018-09-11T20:46:25.643Z,5.43
2018-09-11T20:48:53.636Z,5.13
2018-09-11T20:51:21.658Z,5.80
2018-09-11T20:53:49.725Z,5.00
2018-09-11T20:56:17.743Z,5.20
2018-09-11T20:58:45.792Z,5.10
2018-09-11T21:01:13.814Z,5.33
2018-09-11T21:03:41.880Z,5.37
2018-09-11T21:06:09.943Z,6.07
2018-09-11T21:08:38.110Z,5.93
2018-09-11T21:11:08.182Z,5.33
2018-09-11T21:13:36.243Z,5.30
2018-09-11T21:16:04.280Z,5.87
2018-09-11T21:18:32.315Z,6.27
2018-09-11T21:21:00.383Z,4.93
2018-09-11T21:23:28.425Z,5.10
2018-09-11T21:25:56.476Z,5.17
2018-09-11T21:28:24.532Z,5.50
2018-09-11T21:30:52.588Z,5.00
2018-09-11T21:33:20.643Z,6.03
2018-09-11T21:35:48.670Z,5.60
2018-09-11T21:38:16.689Z,5.10
2018-09-11T21:40:44.760Z,4.77
2018-09-11T21:43:12.810Z,5.70
2018-09-11T21:45:40.853Z,5.47
2018-09-11T21:48:08.907Z,6.40
2018-09-11T21:50:36.999Z,4.70
2018-09-11T21:53:05.038Z,5.20
2018-09-11T21:55:33.109Z,5.33
2018-09-11T21:58:01.188Z,5.50
2018-09-11T22:00:29.227Z,5.03
2018-09-11T22:02:57.452Z,5.47
2018-09-11T22:05:25.523Z,5.80
2018-09-11T22:07:53.574Z,5.60
2018-09-11T22:10:21.632Z,5.30
2018-09-11T22:12:49.678Z,6.63
2018-09-11T22:15:17.744Z,5.00
2018-09-11T22:17:45.783Z,4.50
2018-09-11T22:20:13.826Z,5.07
2018-09-11T22:22:41.851Z,5.57
2018-09-11T22:25:09.907Z,5.50
2018-09-11T22:27:37.930Z,6.50
2018-09-11T22:30:05.967Z,5.17
2018-09-11T22:32:33.979Z,4.83
2018-09-11T22:35:02.025Z,5.47
2018-09-11T22:37:30.053Z,5.17
2018-09-11T22:39:58.115Z,5.67
2018-09-11T22:42:26.142Z,6.20
2018-09-11T22:44:54.159Z,5.77
2018-09-11T22:47:22.179Z,5.43
2018-09-11T22:49:50.210Z,5.73
2018-09-11T22:52:18.237Z,5.70
2018-09-11T22:54:46.303Z,4.70
2018-09-11T22:57:14.299Z,6.10
2018-09-11T22:59:42.428Z,5.60
2018-09-11T23:02:10.442Z,6.17
2018-09-11T23:04:38.488Z,5.80
2018-09-11T23:07:06.519Z,5.73
2018-09-11T23:09:34.924Z,5.80
2018-09-11T23:12:02.950Z,6.67
2018-09-11T23:14:31.387Z,5.87
2018-09-11T23:16:59.415Z,5.80
2018-09-11T23:19:27.452Z,6.07
2018-09-11T23:21:55.519Z,5.70
2018-09-11T23:24:23.559Z,6.13
2018-09-11T23:26:51.588Z,6.40
2018-09-11T23:29:19.627Z,5.77
2018-09-11T23:31:47.653Z,6.00
2018-09-11T23:34:15.700Z,5.60
2018-09-11T23:36:43.755Z,5.80
2018-09-11T23:39:11.786Z,5.20
2018-09-11T23:41:39.838Z,6.23
2018-09-11T23:44:07.940Z,6.13
2018-09-11T23:46:36.029Z,5.90
2018-09-11T23:49:04.097Z,5.37
2018-09-11T23:51:32.188Z,5.40
2018-09-11T23:54:00.224Z,5.37
2018-09-11T23:56:28.259Z,5.43
2018-09-11T23:58:56.263Z,6.10
